createdAt,value
2023-01-29T00:01:10.368Z,65.22
2023-01-29T00:03:39.429Z,65.05
2023-01-29T00:06:09.784Z,65.02
2023-01-29T00:08:38.844Z,65.27
2023-01-29T00:11:08.838Z,65.46
2023-01-29T00:13:37.375Z,65.36
2023-01-29T00:16:05.803Z,64.41
2023-01-29T00:18:34.377Z,64.53
2023-01-29T00:21:05.077Z,64.06
2023-01-29T00:23:34.503Z,64.55
2023-01-29T00:26:03.087Z,64.44
2023-01-29T00:28:31.621Z,64.27
2023-01-29T00:30:59.772Z,64.94
2023-01-29T00:33:29.826Z,65.82
2023-01-29T00:35:58.270Z,65.64
2023-01-29T00:38:26.467Z,66.09
2023-01-29T00:41:13.525Z,65.44
2023-01-29T00:44:00.377Z,65.70
2023-01-29T00:46:32.220Z,65.32
2023-01-29T00:49:04.147Z,65.40
2023-01-29T00:51:32.467Z,64.93
2023-01-29T00:54:02.831Z,64.62
2023-01-29T00:56:31.516Z,66.07
2023-01-29T00:58:59.930Z,65.50
2023-01-29T01:01:46.809Z,66.33
2023-01-29T01:04:15.298Z,65.54
2023-01-29T01:06:46.953Z,66.52
2023-01-29T01:09:34.110Z,66.39
2023-01-29T01:12:03.024Z,66.83
2023-01-29T01:14:31.462Z,65.90
2023-01-29T01:17:03.233Z,66.26
2023-01-29T01:19:31.483Z,66.15
2023-01-29T01:21:59.741Z,66.69
2023-01-29T01:24:28.161Z,67.04
2023-01-29T01:26:56.371Z,66.29
2023-01-29T01:29:25.730Z,66.85
2023-01-29T01:31:54.945Z,66.66
2023-01-29T01:34:24.736Z,66.58
2023-01-29T01:36:54.349Z,66.96
2023-01-29T01:39:23.343Z,66.70
2023-01-29T01:41:55.480Z,65.94
2023-01-29T01:44:51.324Z,64.70
2023-01-29T01:47:38.238Z,64.91
2023-01-29T01:50:31.559Z,64.63
2023-01-29T01:53:05.698Z,64.69
2023-01-29T01:55:38.147Z,63.85
2023-01-29T01:58:12.775Z,63.48
2023-01-29T02:00:43.056Z,64.01
2023-01-29T02:03:31.714Z,64.44
2023-01-29T02:06:19.576Z,64.81
2023-01-29T02:09:22.016Z,65.23
2023-01-29T02:11:51.715Z,65.55
2023-01-29T02:14:20.729Z,66.18
2023-01-29T02:16:49.569Z,65.47
2023-01-29T02:19:40.320Z,65.78
2023-01-29T02:22:25.949Z,66.58
2023-01-29T02:25:19.471Z,66.82
2023-01-29T02:28:06.206Z,66.74
2023-01-29T02:30:41.812Z,66.75
2023-01-29T02:33:47.153Z,66.97
2023-01-29T02:36:20.826Z,66.96
2023-01-29T02:39:13.834Z,65.87
2023-01-29T02:41:49.869Z,66.04
2023-01-29T02:44:47.484Z,65.99
2023-01-29T02:47:23.240Z,66.03
2023-01-29T02:50:18.305Z,66.59
2023-01-29T02:53:03.649Z,66.48
2023-01-29T02:56:08.553Z,66.34
2023-01-29T02:58:43.107Z,67.00
2023-01-29T03:01:30.653Z,66.40
2023-01-29T03:04:11.810Z,66.64
2023-01-29T03:06:54.012Z,66.68
2023-01-29T03:09:41.816Z,67.03
2023-01-29T03:12:49.392Z,67.04
2023-01-29T03:15:27.671Z,67.10
2023-01-29T03:17:59.354Z,66.64
2023-01-29T03:20:33.548Z,66.91
2023-01-29T03:23:08.120Z,67.24
2023-01-29T03:25:57.738Z,67.26
2023-01-29T03:28:47.861Z,66.62
2023-01-29T03:31:36.880Z,66.68
2023-01-29T03:34:24.448Z,67.25
2023-01-29T03:36:59.150Z,67.15
2023-01-29T03:39:29.585Z,66.87
2023-01-29T03:42:24.785Z,66.03
2023-01-29T03:45:00.831Z,65.49
2023-01-29T03:47:44.864Z,65.90
2023-01-29T03:50:37.077Z,67.00
2023-01-29T03:53:29.762Z,67.13
2023-01-29T03:56:02.847Z,66.55
2023-01-29T03:58:37.784Z,65.80
2023-01-29T04:01:15.371Z,66.67
2023-01-29T04:03:50.683Z,65.91
2023-01-29T04:06:26.152Z,66.35
2023-01-29T04:09:11.189Z,66.06
2023-01-29T04:11:45.581Z,67.75
2023-01-29T04:14:14.695Z,66.63
2023-01-29T04:16:51.743Z,67.80
2023-01-29T04:19:20.771Z,66.24
2023-01-29T04:21:53.972Z,65.33
2023-01-29T04:24:22.223Z,66.01
2023-01-29T04:27:31.647Z,67.09
2023-01-29T04:30:48.350Z,67.16
2023-01-29T04:33:55.110Z,67.06
2023-01-29T04:36:47.434Z,66.75
2023-01-29T04:39:27.341Z,68.14
2023-01-29T04:42:14.384Z,67.46
2023-01-29T04:44:59.299Z,68.16
2023-01-29T04:47:41.522Z,68.93
2023-01-29T04:50:16.153Z,67.66
2023-01-29T04:53:18.917Z,67.03
2023-01-29T04:55:54.723Z,67.98
2023-01-29T04:58:30.172Z,66.45
2023-01-29T05:01:00.671Z,67.38
2023-01-29T05:03:31.690Z,66.48
2023-01-29T05:06:03.582Z,66.98
2023-01-29T05:08:33.893Z,66.63
2023-01-29T05:11:02.449Z,66.53
2023-01-29T05:13:33.549Z,65.99
2023-01-29T05:16:10.445Z,65.95
2023-01-29T05:18:39.028Z,66.81
2023-01-29T05:21:09.626Z,66.63
2023-01-29T05:23:38.341Z,68.60
2023-01-29T05:26:06.684Z,67.33
2023-01-29T05:28:34.876Z,67.57
2023-01-29T05:31:03.123Z,68.76
2023-01-29T05:33:32.340Z,68.99
2023-01-29T05:36:05.632Z,67.63
2023-01-29T05:38:34.466Z,68.24
2023-01-29T05:41:02.653Z,68.90
2023-01-29T05:43:30.958Z,68.64
2023-01-29T05:46:01.304Z,68.00
2023-01-29T05:48:31.643Z,67.89
2023-01-29T05:51:05.454Z,67.91
2023-01-29T05:53:34.361Z,68.15
2023-01-29T05:56:04.445Z,70.57
2023-01-29T05:58:33.901Z,69.00
2023-01-29T06:01:17.129Z,69.43
2023-01-29T06:03:46.548Z,69.10
2023-01-29T06:06:15.494Z,68.73
2023-01-29T06:08:44.760Z,68.73
2023-01-29T06:11:14.790Z,69.60
2023-01-29T06:13:43.043Z,69.06
2023-01-29T06:16:16.523Z,69.22
2023-01-29T06:18:45.142Z,69.87
2023-01-29T06:21:14.670Z,69.38
2023-01-29T06:23:43.796Z,68.94
2023-01-29T06:26:15.006Z,68.57
2023-01-29T06:28:44.244Z,68.56
2023-01-29T06:31:27.453Z,69.55
2023-01-29T06:34:01.679Z,69.03
2023-01-29T06:36:29.972Z,70.29
2023-01-29T06:38:58.533Z,70.68
2023-01-29T06:41:27.198Z,70.91
2023-01-29T06:43:55.683Z,71.13
2023-01-29T06:46:24.660Z,71.56
2023-01-29T06:48:53.221Z,71.60
2023-01-29T06:51:23.249Z,71.11
2023-01-29T06:53:51.557Z,70.75
2023-01-29T06:56:19.984Z,71.82
2023-01-29T06:58:52.514Z,71.49
2023-01-29T07:01:35.284Z,71.88
2023-01-29T07:04:04.664Z,72.57
2023-01-29T07:06:33.693Z,72.52
2023-01-29T07:09:05.822Z,72.31
2023-01-29T07:11:38.760Z,72.29
2023-01-29T07:14:07.272Z,72.59
2023-01-29T07:16:35.474Z,72.41
2023-01-29T07:19:03.969Z,71.23
2023-01-29T07:21:32.210Z,70.47
2023-01-29T07:24:00.842Z,70.72
2023-01-29T07:26:29.786Z,71.04
2023-01-29T07:28:58.153Z,70.29
2023-01-29T07:31:26.977Z,70.68
2023-01-29T07:33:55.990Z,70.35
2023-01-29T07:36:24.367Z,69.99
2023-01-29T07:38:53.330Z,70.08
2023-01-29T07:41:22.131Z,69.83
2023-01-29T07:43:50.312Z,69.81
2023-01-29T07:46:18.352Z,69.34
2023-01-29T07:48:47.048Z,69.01
2023-01-29T07:51:17.938Z,69.11
2023-01-29T07:53:46.441Z,69.20
2023-01-29T07:56:15.258Z,69.72
2023-01-29T07:58:43.675Z,69.20
2023-01-29T08:01:12.041Z,69.47
2023-01-29T08:03:40.431Z,69.54
2023-01-29T08:06:12.068Z,70.16
2023-01-29T08:08:41.090Z,69.65
2023-01-29T08:11:09.491Z,69.77
2023-01-29T08:13:37.758Z,69.77
2023-01-29T08:16:06.666Z,69.09
2023-01-29T08:18:36.977Z,68.86
2023-01-29T08:21:05.765Z,69.18
2023-01-29T08:23:33.937Z,70.16
2023-01-29T08:26:05.633Z,70.15
2023-01-29T08:28:33.812Z,71.02
2023-01-29T08:31:02.315Z,70.62
2023-01-29T08:33:38.620Z,71.29
2023-01-29T08:36:09.005Z,70.41
2023-01-29T08:38:37.523Z,70.53
2023-01-29T08:41:06.495Z,71.25
2023-01-29T08:43:37.750Z,72.11
2023-01-29T08:46:07.187Z,71.47
2023-01-29T08:48:35.872Z,71.86
2023-01-29T08:51:06.222Z,72.03
2023-01-29T08:53:37.020Z,71.90
2023-01-29T08:56:05.840Z,72.68
2023-01-29T08:58:34.499Z,72.71
2023-01-29T09:01:08.439Z,72.78
2023-01-29T09:03:37.092Z,72.53
2023-01-29T09:06:05.759Z,72.77
2023-01-29T09:08:34.541Z,72.65
2023-01-29T09:11:03.265Z,72.39
2023-01-29T09:13:33.412Z,72.90
2023-01-29T09:16:03.155Z,72.62
2023-01-29T09:18:31.847Z,73.49
2023-01-29T09:21:02.322Z,74.02
2023-01-29T09:23:31.009Z,73.36
2023-01-29T09:26:00.102Z,74.06
2023-01-29T09:28:33.261Z,72.82
2023-01-29T09:31:03.287Z,73.78
2023-01-29T09:33:32.792Z,73.95
2023-01-29T09:36:03.657Z,73.57
2023-01-29T09:38:31.983Z,72.53
2023-01-29T09:41:24.613Z,72.71
2023-01-29T09:44:05.240Z,72.40
2023-01-29T09:46:41.947Z,72.73
2023-01-29T09:49:21.528Z,71.94
2023-01-29T09:51:55.361Z,73.74
2023-01-29T09:54:29.473Z,72.58
2023-01-29T09:56:58.489Z,72.56
2023-01-29T09:59:32.752Z,72.05
2023-01-29T10:02:19.630Z,72.45
2023-01-29T10:05:20.389Z,71.08
2023-01-29T10:08:06.699Z,71.56
2023-01-29T10:10:57.488Z,73.50
2023-01-29T10:13:44.850Z,72.08
2023-01-29T10:16:31.648Z,71.66
2023-01-29T10:19:48.781Z,72.94
2023-01-29T10:22:31.472Z,71.68
2023-01-29T10:25:05.757Z,70.94
2023-01-29T10:27:38.929Z,73.49
2023-01-29T10:30:37.247Z,71.92
2023-01-29T10:33:11.901Z,71.68
2023-01-29T10:35:49.959Z,73.35
2023-01-29T10:38:51.184Z,74.91
2023-01-29T10:41:34.507Z,75.71
2023-01-29T10:44:17.223Z,74.89
2023-01-29T10:47:23.847Z,73.97
2023-01-29T10:50:02.419Z,74.55
2023-01-29T10:53:04.178Z,75.54
2023-01-29T10:55:41.519Z,75.66
2023-01-29T10:58:24.918Z,74.72
2023-01-29T11:00:53.394Z,74.84
2023-01-29T11:03:34.803Z,73.91
2023-01-29T11:06:28.967Z,75.04
2023-01-29T11:09:34.828Z,74.63
2023-01-29T11:12:09.918Z,74.35
2023-01-29T11:15:01.767Z,74.61
2023-01-29T11:17:29.878Z,73.76
2023-01-29T11:19:58.132Z,73.81
2023-01-29T11:22:29.737Z,73.59
2023-01-29T11:25:30.069Z,73.75
2023-01-29T11:28:02.930Z,74.09
2023-01-29T11:30:38.577Z,73.65
2023-01-29T11:33:12.330Z,72.80
2023-01-29T11:35:40.605Z,74.02
2023-01-29T11:38:16.031Z,74.32
2023-01-29T11:40:45.103Z,74.15
2023-01-29T11:43:29.712Z,72.76
2023-01-29T11:46:08.871Z,72.97
2023-01-29T11:48:56.379Z,72.13
2023-01-29T11:51:29.479Z,71.66
2023-01-29T11:54:06.004Z,72.30
2023-01-29T11:56:36.073Z,71.70
2023-01-29T11:59:05.435Z,71.34
2023-01-29T12:01:38.110Z,71.53
2023-01-29T12:04:26.545Z,71.75
2023-01-29T12:06:55.112Z,72.69
2023-01-29T12:09:29.663Z,72.40
2023-01-29T12:12:18.024Z,72.73
2023-01-29T12:14:46.363Z,73.02
2023-01-29T12:17:21.798Z,72.00
2023-01-29T12:20:09.924Z,73.18
2023-01-29T12:22:54.431Z,73.24
2023-01-29T12:25:36.646Z,74.27
2023-01-29T12:28:45.644Z,73.90
2023-01-29T12:31:29.717Z,73.77
2023-01-29T12:34:17.164Z,73.48
2023-01-29T12:37:10.141Z,73.18
2023-01-29T12:39:38.440Z,72.93
2023-01-29T12:42:17.533Z,73.20
2023-01-29T12:45:11.839Z,72.82
2023-01-29T12:47:47.445Z,73.08
2023-01-29T12:50:19.465Z,72.76
2023-01-29T12:53:00.976Z,72.96
2023-01-29T12:55:43.280Z,72.37
2023-01-29T12:58:21.475Z,72.88
2023-01-29T13:00:55.157Z,73.42
2023-01-29T13:03:33.207Z,72.29
2023-01-29T13:06:10.007Z,72.65
2023-01-29T13:08:58.950Z,72.46
2023-01-29T13:11:30.258Z,73.65
2023-01-29T13:14:24.967Z,72.68
2023-01-29T13:17:10.371Z,73.88
2023-01-29T13:19:48.293Z,74.01
2023-01-29T13:22:29.202Z,74.49
2023-01-29T13:25:04.669Z,74.16
2023-01-29T13:27:35.567Z,72.43
2023-01-29T13:30:05.276Z,72.07
2023-01-29T13:32:35.999Z,71.61
2023-01-29T13:35:15.178Z,71.45
2023-01-29T13:37:53.093Z,71.52
2023-01-29T13:40:27.946Z,71.33
2023-01-29T13:43:04.543Z,71.92
2023-01-29T13:45:45.017Z,71.46
2023-01-29T13:48:30.073Z,71.34
2023-01-29T13:51:02.854Z,72.63
2023-01-29T13:53:43.897Z,72.17
2023-01-29T13:56:44.143Z,73.88
2023-01-29T13:59:45.545Z,73.23
2023-01-29T14:02:24.107Z,72.73
2023-01-29T14:05:12.731Z,73.43
2023-01-29T14:07:47.003Z,73.15
2023-01-29T14:10:19.215Z,73.05
2023-01-29T14:12:52.827Z,73.84
2023-01-29T14:15:29.681Z,74.10
2023-01-29T14:18:17.540Z,74.49
2023-01-29T14:20:49.102Z,74.04
2023-01-29T14:23:31.860Z,74.37
2023-01-29T14:26:02.235Z,73.79
2023-01-29T14:28:32.799Z,73.68
2023-01-29T14:31:01.679Z,73.58
2023-01-29T14:33:37.503Z,73.16
2023-01-29T14:36:16.010Z,73.57
2023-01-29T14:38:52.542Z,75.48
2023-01-29T14:41:29.330Z,76.06
2023-01-29T14:44:35.318Z,76.16
2023-01-29T14:47:05.405Z,75.44
2023-01-29T14:50:01.349Z,76.36
2023-01-29T14:52:42.773Z,77.04
2023-01-29T14:55:38.429Z,76.92
2023-01-29T14:58:26.462Z,77.31
2023-01-29T15:00:57.919Z,75.76
2023-01-29T15:04:04.479Z,75.11
2023-01-29T15:06:43.137Z,75.33
2023-01-29T15:09:23.204Z,74.20
2023-01-29T15:12:11.139Z,73.87
2023-01-29T15:14:51.578Z,73.87
2023-01-29T15:17:29.311Z,73.90
2023-01-29T15:19:58.442Z,74.80
2023-01-29T15:22:29.648Z,74.39
2023-01-29T15:25:14.484Z,74.50
2023-01-29T15:27:44.811Z,76.17
2023-01-29T15:30:19.569Z,74.14
2023-01-29T15:32:49.524Z,75.54
2023-01-29T15:35:42.630Z,75.95
2023-01-29T15:38:25.641Z,76.38
2023-01-29T15:40:56.952Z,75.53
2023-01-29T15:43:31.961Z,76.22
2023-01-29T15:46:25.955Z,75.90
2023-01-29T15:49:01.797Z,77.86
2023-01-29T15:51:30.229Z,77.12
2023-01-29T15:54:02.140Z,77.99
2023-01-29T15:57:03.999Z,78.85
2023-01-29T15:59:42.127Z,79.23
2023-01-29T16:02:29.830Z,81.27
2023-01-29T16:04:58.796Z,81.96
2023-01-29T16:07:28.119Z,80.15
2023-01-29T16:09:57.407Z,79.90
2023-01-29T16:12:26.092Z,79.38
2023-01-29T16:14:56.230Z,79.42
2023-01-29T16:17:27.697Z,79.04
2023-01-29T16:20:00.908Z,78.67
2023-01-29T16:22:37.662Z,78.64
2023-01-29T16:25:12.599Z,77.60
2023-01-29T16:27:45.186Z,78.54
2023-01-29T16:30:18.568Z,78.15
2023-01-29T16:32:50.770Z,78.88
2023-01-29T16:35:19.446Z,78.35
2023-01-29T16:37:50.455Z,78.67
2023-01-29T16:40:33.981Z,78.82
2023-01-29T16:43:17.603Z,79.05
2023-01-29T16:46:14.753Z,80.13
2023-01-29T16:48:43.264Z,81.24
2023-01-29T16:51:19.736Z,79.53
2023-01-29T16:54:06.998Z,80.41
2023-01-29T16:56:37.706Z,80.23
2023-01-29T16:59:07.194Z,80.09
2023-01-29T17:01:36.747Z,78.57
2023-01-29T17:04:14.570Z,81.09
2023-01-29T17:06:48.486Z,80.89
2023-01-29T17:09:26.492Z,80.24
2023-01-29T17:11:58.771Z,79.26
2023-01-29T17:14:27.383Z,78.68
2023-01-29T17:17:07.387Z,78.57
2023-01-29T17:19:35.978Z,81.06
2023-01-29T17:22:09.722Z,79.70
2023-01-29T17:24:37.881Z,80.34
2023-01-29T17:27:06.089Z,79.83
2023-01-29T17:29:34.680Z,78.37
2023-01-29T17:32:03.180Z,78.08
2023-01-29T17:34:31.712Z,79.27
2023-01-29T17:37:02.958Z,78.33
2023-01-29T17:39:31.270Z,77.75
2023-01-29T17:42:02.125Z,77.93
2023-01-29T17:44:30.311Z,78.47
2023-01-29T17:46:58.829Z,78.70
2023-01-29T17:49:29.456Z,77.65
2023-01-29T17:51:57.711Z,77.22
2023-01-29T17:54:28.390Z,78.58
2023-01-29T17:56:58.424Z,77.82
2023-01-29T17:59:31.598Z,76.90
2023-01-29T18:02:00.673Z,78.80
2023-01-29T18:04:30.852Z,77.75
2023-01-29T18:06:59.233Z,78.09
2023-01-29T18:09:28.330Z,80.19
2023-01-29T18:11:56.866Z,78.84
2023-01-29T18:14:25.775Z,79.05
2023-01-29T18:16:57.327Z,79.03
2023-01-29T18:19:31.379Z,79.09
2023-01-29T18:22:00.091Z,79.66
2023-01-29T18:24:28.823Z,78.32
2023-01-29T18:26:57.585Z,79.14
2023-01-29T18:29:30.150Z,78.15
2023-01-29T18:31:58.783Z,78.72
2023-01-29T18:34:27.213Z,78.25
2023-01-29T18:36:55.379Z,78.84
2023-01-29T18:39:23.455Z,78.65
2023-01-29T18:41:53.418Z,78.96
2023-01-29T18:44:21.819Z,78.65
2023-01-29T18:46:49.979Z,79.32
2023-01-29T18:49:18.217Z,78.35
2023-01-29T18:51:46.491Z,78.92
2023-01-29T18:54:16.001Z,78.61
2023-01-29T18:57:13.156Z,78.48
2023-01-29T18:59:35.644Z,78.73
2023-01-29T19:02:04.227Z,80.13
2023-01-29T19:04:32.426Z,79.28
2023-01-29T19:07:00.793Z,80.62
2023-01-29T19:09:29.245Z,79.27
2023-01-29T19:11:57.553Z,78.76
2023-01-29T19:14:25.922Z,80.00
2023-01-29T19:16:54.674Z,78.46
2023-01-29T19:19:22.983Z,78.67
2023-01-29T19:21:54.688Z,78.80
2023-01-29T19:24:26.096Z,79.57
2023-01-29T19:26:54.642Z,78.84
2023-01-29T19:29:22.923Z,80.29
2023-01-29T19:31:51.198Z,78.73
2023-01-29T19:34:19.503Z,80.13
2023-01-29T19:36:48.425Z,77.94
2023-01-29T19:39:16.984Z,78.38
2023-01-29T19:41:45.671Z,78.24
2023-01-29T19:44:14.454Z,79.35
2023-01-29T19:46:47.055Z,78.46
2023-01-29T19:49:15.740Z,80.19
2023-01-29T19:51:45.510Z,80.67
2023-01-29T19:54:14.250Z,78.58
2023-01-29T19:56:42.987Z,78.79
2023-01-29T19:59:11.429Z,78.78
2023-01-29T20:01:42.640Z,79.60
2023-01-29T20:04:11.521Z,78.43
2023-01-29T20:06:40.063Z,78.21
2023-01-29T20:09:08.889Z,76.89
2023-01-29T20:11:37.162Z,77.92
2023-01-29T20:14:09.182Z,78.22
2023-01-29T20:16:40.381Z,78.36
2023-01-29T20:19:13.408Z,77.41
2023-01-29T20:21:49.192Z,79.01
2023-01-29T20:24:20.311Z,78.04
2023-01-29T20:26:49.321Z,78.27
2023-01-29T20:29:18.881Z,77.91
2023-01-29T20:31:48.160Z,78.17
2023-01-29T20:34:16.732Z,78.12
2023-01-29T20:36:44.995Z,79.11
2023-01-29T20:39:13.960Z,79.15
2023-01-29T20:41:42.916Z,77.92
2023-01-29T20:44:11.333Z,77.81
2023-01-29T20:46:40.048Z,77.39
2023-01-29T20:49:09.216Z,77.55
2023-01-29T20:51:37.482Z,78.59
2023-01-29T20:54:05.815Z,78.85
2023-01-29T20:56:40.140Z,79.04
2023-01-29T20:59:13.770Z,78.38
2023-01-29T21:01:43.323Z,78.21
2023-01-29T21:04:11.839Z,78.34
2023-01-29T21:06:40.385Z,77.54
2023-01-29T21:09:08.772Z,78.72
2023-01-29T21:11:37.137Z,79.19
2023-01-29T21:14:05.643Z,78.50
2023-01-29T21:16:34.243Z,77.20
2023-01-29T21:19:06.047Z,76.59
2023-01-29T21:21:35.252Z,77.32
2023-01-29T21:24:03.781Z,79.24
2023-01-29T21:26:38.461Z,79.07
2023-01-29T21:29:07.066Z,78.18
2023-01-29T21:31:35.375Z,77.03
2023-01-29T21:34:05.555Z,78.07
2023-01-29T21:36:34.935Z,79.27
2023-01-29T21:39:16.925Z,79.02
2023-01-29T21:42:05.656Z,79.51
2023-01-29T21:44:35.923Z,80.51
2023-01-29T21:47:14.156Z,81.10
2023-01-29T21:49:44.194Z,79.80
2023-01-29T21:52:15.482Z,79.84
2023-01-29T21:54:49.144Z,80.39
2023-01-29T21:57:20.939Z,79.58
2023-01-29T21:59:53.110Z,80.03
2023-01-29T22:02:23.947Z,79.72
2023-01-29T22:04:54.196Z,79.48
2023-01-29T22:07:23.662Z,77.32
2023-01-29T22:09:52.278Z,77.02
2023-01-29T22:12:20.649Z,76.12
2023-01-29T22:14:50.004Z,77.63
2023-01-29T22:17:20.445Z,78.02
2023-01-29T22:19:48.962Z,77.72
2023-01-29T22:22:18.684Z,78.18
2023-01-29T22:24:47.197Z,77.20
2023-01-29T22:27:16.224Z,78.26
2023-01-29T22:29:45.465Z,77.08
2023-01-29T22:32:14.615Z,77.26
2023-01-29T22:34:43.246Z,78.65
2023-01-29T22:37:12.021Z,78.83
2023-01-29T22:39:40.419Z,78.21
2023-01-29T22:42:11.502Z,77.01
2023-01-29T22:44:39.781Z,76.70
2023-01-29T22:47:08.491Z,77.63
2023-01-29T22:49:37.024Z,78.26
2023-01-29T22:52:11.683Z,79.57
2023-01-29T22:54:43.026Z,79.19
2023-01-29T22:57:14.832Z,79.22
2023-01-29T22:59:43.383Z,78.39
2023-01-29T23:02:11.864Z,79.13
2023-01-29T23:04:40.408Z,76.92
2023-01-29T23:07:08.890Z,78.13
2023-01-29T23:09:37.386Z,76.97
2023-01-29T23:12:11.144Z,78.13
2023-01-29T23:14:39.654Z,79.08
2023-01-29T23:17:08.641Z,79.64
2023-01-29T23:19:36.996Z,78.75
2023-01-29T23:22:05.547Z,78.44
2023-01-29T23:24:34.078Z,77.88
2023-01-29T23:27:14.884Z,78.15
2023-01-29T23:29:45.145Z,77.05
2023-01-29T23:32:16.959Z,77.20
2023-01-29T23:34:45.419Z,78.59
2023-01-29T23:37:14.054Z,77.72
2023-01-29T23:39:42.413Z,79.70
2023-01-29T23:42:11.891Z,79.25
2023-01-29T23:44:43.311Z,78.40
2023-01-29T23:47:11.691Z,79.54
2023-01-29T23:49:39.876Z,78.82
2023-01-29T23:52:08.124Z,79.16
2023-01-29T23:54:36.717Z,79.63
2023-01-29T23:57:04.884Z,80.44
2023-01-29T23:59:33.084Z,78.78
